Time;durP1;ratioP1;P1;durP2;ratioP2;P2;SDS_P1;SDS_P2;PMS_P1;PMS_P2;Temp;Humidity;BMP_temperature;BMP_pressure;BME280_temperature;BME280_humidity;BME280_pressure;Samples;Min_cycle;Max_cycle;Signal;HPM_P1;HPM_P2
2021/03/28 00:02:08;;;;;;;3.00;1.23;;;8.50;78.80;;;;;;5034078;28;20177;-79
2021/03/28 00:05:15;;;;;;;7.18;2.35;;;8.50;78.90;;;;;;5050592;28;20157;-80
2021/03/28 00:07:43;;;;;;;5.45;1.80;;;8.50;79.50;;;;;;5033286;28;20204;-79
2021/03/28 00:10:39;;;;;;;4.90;1.33;;;8.50;78.90;;;;;;5051777;28;20567;-79
2021/03/28 00:13:26;;;;;;;3.15;1.50;;;8.50;80.10;;;;;;5048471;28;20215;-79
2021/03/28 00:15:57;;;;;;;5.68;1.80;;;8.50;80.90;;;;;;5037329;28;20173;-77
2021/03/28 00:18:25;;;;;;;4.32;1.77;;;8.50;80.50;;;;;;5053228;28;20279;-79
2021/03/28 00:21:15;;;;;;;7.03;1.88;;;8.60;80.60;;;;;;5053543;28;20157;-78
2021/03/28 00:24:15;;;;;;;6.15;1.60;;;8.60;81.80;;;;;;5053485;28;20547;-79
2021/03/28 00:27:10;;;;;;;3.83;1.20;;;8.70;81.90;;;;;;5051336;28;20625;-78
2021/03/28 00:29:45;;;;;;;3.00;1.58;;;8.80;82.00;;;;;;5050503;28;20169;-78
2021/03/28 00:32:35;;;;;;;5.93;1.50;;;8.80;81.90;;;;;;5051553;28;20199;-78
2021/03/28 00:35:08;;;;;;;7.72;2.75;;;8.90;82.10;;;;;;5051443;28;20568;-79
2021/03/28 00:37:35;;;;;;;4.60;1.80;;;9.00;82.10;;;;;;5049911;28;20176;-78
2021/03/28 00:40:15;;;;;;;7.90;2.00;;;9.00;82.20;;;;;;5051414;28;20197;-78
2021/03/28 00:42:46;;;;;;;4.63;1.90;;;9.10;83.00;;;;;;5050162;28;20203;-79
2021/03/28 00:45:29;;;;;;;6.15;1.70;;;9.10;82.70;;;;;;5051484;28;20204;-79
2021/03/28 00:48:03;;;;;;;5.15;1.60;;;9.10;83.00;;;;;;5049963;28;20196;-79
2021/03/28 00:50:44;;;;;;;5.53;1.65;;;9.20;82.90;;;;;;5050359;28;20192;-78
2021/03/28 00:53:14;;;;;;;4.25;1.45;;;9.20;83.10;;;;;;5052994;28;20668;-79
2021/03/28 00:56:47;;;;;;;5.45;1.52;;;9.30;83.10;;;;;;5050265;28;20244;-79
2021/03/28 00:59:32;;;;;;;4.38;1.42;;;9.30;83.30;;;;;;4992932;28;20214;-79
2021/03/28 01:02:06;;;;;;;5.60;1.13;;;9.40;83.20;;;;;;5049932;28;20187;-79
2021/03/28 01:04:51;;;;;;;3.65;1.50;;;9.40;83.20;;;;;;5051113;28;20215;-79
2021/03/28 01:07:37;;;;;;;9.07;1.73;;;9.40;83.70;;;;;;5049719;28;20157;-79
2021/03/28 01:10:45;;;;;;;4.68;1.50;;;9.40;83.40;;;;;;5049778;28;20176;-79
2021/03/28 01:13:33;;;;;;;3.80;1.65;;;9.40;83.60;;;;;;5051257;28;20180;-79
2021/03/28 01:16:18;;;;;;;4.65;1.70;;;9.50;84.00;;;;;;5049949;28;20172;-79
2021/03/28 01:19:15;;;;;;;5.15;1.98;;;9.50;84.00;;;;;;5050825;28;20274;-78
2021/03/28 01:21:44;;;;;;;5.53;1.80;;;9.50;84.00;;;;;;5050014;28;20545;-79
2021/03/28 01:24:33;;;;;;;4.90;1.70;;;9.60;83.80;;;;;;5050230;28;20161;-79
2021/03/28 01:27:28;;;;;;;6.35;1.80;;;9.60;84.20;;;;;;5053737;28;20173;-79
2021/03/28 01:29:58;;;;;;;4.10;1.20;;;9.60;84.20;;;;;;5057146;28;20169;-79
2021/03/28 01:32:35;;;;;;;4.80;1.90;;;9.60;84.10;;;;;;5055254;28;20193;-79
2021/03/28 01:35:29;;;;;;;5.00;1.67;;;9.70;84.50;;;;;;5053273;28;20173;-79
2021/03/28 01:38:11;;;;;;;3.65;1.40;;;9.70;84.50;;;;;;5054018;28;20506;-79
2021/03/28 01:40:49;;;;;;;6.82;1.73;;;9.70;84.60;;;;;;5054427;28;20188;-79
2021/03/28 01:43:25;;;;;;;5.47;1.50;;;9.70;84.40;;;;;;5053107;28;20212;-79
2021/03/28 01:46:16;;;;;;;8.20;1.65;;;9.70;84.60;;;;;;5054255;28;20168;-79
2021/03/28 01:48:54;;;;;;;6.53;2.10;;;9.80;85.00;;;;;;5054177;28;20184;-79
2021/03/28 01:51:35;;;;;;;5.70;1.60;;;9.80;84.80;;;;;;5053059;28;20172;-79
2021/03/28 01:54:37;;;;;;;5.40;1.60;;;9.90;84.90;;;;;;5052828;28;20612;-79
2021/03/28 01:57:23;;;;;;;10.82;2.45;;;9.90;84.90;;;;;;5053657;28;20165;-79
2021/03/28 02:00:21;;;;;;;6.93;2.03;;;9.90;84.90;;;;;;5053910;28;20204;-80
2021/03/28 02:03:07;;;;;;;3.85;2.05;;;10.00;83.90;;;;;;5054024;28;20189;-79
2021/03/28 02:05:33;;;;;;;5.30;2.15;;;10.00;84.00;;;;;;5053999;28;20248;-79
2021/03/28 02:08:11;;;;;;;4.77;1.33;;;10.00;83.70;;;;;;5038002;28;20189;-79
2021/03/28 02:11:10;;;;;;;5.30;1.60;;;10.00;83.90;;;;;;5053724;28;20288;-80
2021/03/28 02:13:42;;;;;;;5.38;1.40;;;10.00;83.80;;;;;;5053747;28;20187;-79
2021/03/28 02:16:36;;;;;;;3.55;1.10;;;10.00;83.70;;;;;;5052505;28;20683;-79
2021/03/28 02:19:07;;;;;;;3.47;1.42;;;10.00;83.90;;;;;;5051953;28;20212;-79
2021/03/28 02:21:48;;;;;;;3.70;1.30;;;10.10;84.00;;;;;;5052426;28;20211;-79
2021/03/28 02:24:26;;;;;;;3.92;1.40;;;10.10;84.20;;;;;;5052577;28;20176;-79
2021/03/28 02:27:43;;;;;;;5.55;1.38;;;10.10;84.40;;;;;;5053250;28;20160;-79
2021/03/28 02:30:56;;;;;;;3.35;1.00;;;10.10;84.40;;;;;;5027125;28;20181;-80
2021/03/28 02:33:43;;;;;;;5.88;1.25;;;10.10;84.20;;;;;;5044193;28;20201;-79
2021/03/28 02:36:41;;;;;;;6.35;1.25;;;10.10;84.10;;;;;;5035575;28;20706;-79
2021/03/28 02:39:12;;;;;;;2.90;1.35;;;10.10;84.00;;;;;;5053181;28;20193;-79
2021/03/28 02:42:02;;;;;;;2.33;1.08;;;10.10;83.90;;;;;;5053301;28;20521;-79
2021/03/28 02:44:35;;;;;;;6.70;1.08;;;10.10;83.90;;;;;;5055273;28;20323;-80
2021/03/28 02:47:31;;;;;;;3.25;1.10;;;10.00;83.40;;;;;;5053324;28;20172;-79
2021/03/28 02:50:34;;;;;;;3.35;0.95;;;9.90;84.90;;;;;;5053324;28;20216;-79
2021/03/28 02:53:21;;;;;;;4.03;1.23;;;9.80;85.10;;;;;;5028075;28;20208;-78
2021/03/28 02:56:16;;;;;;;3.35;1.10;;;9.70;84.60;;;;;;5035431;28;20180;-78
2021/03/28 02:58:54;;;;;;;4.75;1.30;;;9.60;85.00;;;;;;5051677;28;20258;-79
2021/03/28 03:01:55;;;;;;;3.90;1.20;;;9.50;85.50;;;;;;5053398;28;20169;-79
2021/03/28 03:04:52;;;;;;;6.18;1.42;;;9.50;85.40;;;;;;5052883;28;20165;-78
2021/03/28 03:07:44;;;;;;;5.60;1.27;;;9.40;86.20;;;;;;5052095;28;20197;-79
2021/03/28 03:10:29;;;;;;;4.25;1.20;;;9.40;85.70;;;;;;5052383;28;20185;-79
2021/03/28 03:13:07;;;;;;;3.78;1.20;;;9.40;86.30;;;;;;5052686;28;20267;-79
2021/03/28 03:15:44;;;;;;;5.97;1.40;;;9.40;86.40;;;;;;5034772;28;20539;-79
2021/03/28 03:18:37;;;;;;;5.05;1.13;;;9.40;86.40;;;;;;5052846;28;20183;-79
2021/03/28 03:21:16;;;;;;;3.25;1.30;;;9.30;86.60;;;;;;5053655;28;20169;-79
2021/03/28 03:24:15;;;;;;;2.85;1.15;;;9.30;87.00;;;;;;5062116;28;20192;-78
2021/03/28 03:26:56;;;;;;;4.97;1.52;;;9.30;86.70;;;;;;5050847;28;20624;-79
2021/03/28 03:29:57;;;;;;;3.45;1.30;;;9.20;86.70;;;;;;5051035;28;20176;-78
2021/03/28 03:32:35;;;;;;;4.88;1.40;;;9.20;87.30;;;;;;5031700;28;20209;-78
2021/03/28 03:35:19;;;;;;;4.20;1.50;;;9.10;86.60;;;;;;5050916;28;20531;-79
2021/03/28 03:37:54;;;;;;;3.95;1.15;;;9.10;87.60;;;;;;5051854;28;20165;-79
2021/03/28 03:40:46;;;;;;;3.10;1.52;;;9.00;87.40;;;;;;5050920;28;20198;-77
2021/03/28 03:43:21;;;;;;;4.15;1.20;;;9.00;87.50;;;;;;5052133;28;20741;-78
2021/03/28 03:46:02;;;;;;;4.43;1.50;;;9.00;87.70;;;;;;5052326;28;20211;-77
2021/03/28 03:48:53;;;;;;;2.35;0.90;;;8.90;88.70;;;;;;5051301;28;20165;-78
2021/03/28 03:51:47;;;;;;;6.18;1.10;;;8.90;88.20;;;;;;5052039;28;20179;-77
2021/03/28 03:54:23;;;;;;;4.30;0.90;;;8.90;88.50;;;;;;5050800;28;20203;-77
2021/03/28 03:57:22;;;;;;;2.33;1.13;;;8.90;88.50;;;;;;5050481;28;20783;-77
2021/03/28 04:00:19;;;;;;;9.80;1.67;;;8.90;88.80;;;;;;5049549;28;20681;-77
2021/03/28 04:02:55;;;;;;;1.85;0.88;;;8.90;90.30;;;;;;5051984;28;20186;-77
2021/03/28 04:05:59;;;;;;;3.55;1.15;;;8.90;89.00;;;;;;5051850;28;20569;-77
2021/03/28 04:08:43;;;;;;;3.47;1.23;;;8.90;89.30;;;;;;5050281;28;20513;-77
2021/03/28 04:11:38;;;;;;;4.43;1.25;;;8.90;89.40;;;;;;5050507;28;20222;-77
2021/03/28 04:14:14;;;;;;;2.70;1.63;;;9.00;89.90;;;;;;5051845;28;20189;-77
2021/03/28 04:16:56;;;;;;;2.80;0.90;;;9.00;89.50;;;;;;5051258;28;20176;-77
2021/03/28 04:19:57;;;;;;;1.45;0.77;;;9.00;89.90;;;;;;5051574;28;20211;-77
2021/03/28 04:22:45;;;;;;;2.85;1.00;;;9.00;89.80;;;;;;5005176;28;20198;-78
2021/03/28 04:25:27;;;;;;;4.75;1.38;;;9.10;90.10;;;;;;5033734;28;20648;-78
2021/03/28 04:28:17;;;;;;;3.25;1.10;;;9.00;90.10;;;;;;5050216;28;20179;-78
2021/03/28 04:30:55;;;;;;;4.47;1.20;;;9.10;90.00;;;;;;5050336;28;20201;-78
2021/03/28 04:33:39;;;;;;;3.42;0.98;;;9.00;90.00;;;;;;5051596;28;20193;-78
2021/03/28 04:36:43;;;;;;;2.55;0.90;;;9.00;90.10;;;;;;5056236;28;20165;-78
2021/03/28 04:39:38;;;;;;;2.55;0.93;;;9.00;90.50;;;;;;5051071;28;20204;-78
2021/03/28 04:42:22;;;;;;;3.95;1.20;;;9.00;90.40;;;;;;5051472;28;20276;-77
2021/03/28 04:45:24;;;;;;;3.35;1.00;;;9.00;90.40;;;;;;5050141;28;20172;-77
2021/03/28 04:48:00;;;;;;;3.90;1.00;;;9.00;90.50;;;;;;5049711;28;20664;-78
2021/03/28 04:50:41;;;;;;;3.00;1.20;;;9.00;90.70;;;;;;5051443;28;20177;-78
2021/03/28 04:53:40;;;;;;;3.70;1.10;;;9.00;90.70;;;;;;5033612;28;20694;-76
2021/03/28 04:56:40;;;;;;;3.35;1.95;;;9.10;90.90;;;;;;5051270;28;20504;-76
2021/03/28 04:59:27;;;;;;;7.03;1.10;;;9.10;90.90;;;;;;5049882;28;20203;-76
2021/03/28 05:02:30;;;;;;;3.20;1.23;;;9.20;90.90;;;;;;5053532;28;20172;-76
2021/03/28 05:05:34;;;;;;;3.85;1.10;;;9.20;91.10;;;;;;5055052;28;20630;-77
2021/03/28 05:08:08;;;;;;;2.78;1.05;;;9.30;91.10;;;;;;5054458;28;20164;-76
2021/03/28 05:10:58;;;;;;;3.55;1.23;;;9.30;91.00;;;;;;5055146;28;20196;-76
2021/03/28 05:14:01;;;;;;;5.03;1.30;;;9.40;91.30;;;;;;5058482;28;20185;-75
2021/03/28 05:17:02;;;;;;;5.20;1.75;;;9.40;91.30;;;;;;5053168;28;20183;-75
2021/03/28 05:20:05;;;;;;;2.50;1.00;;;9.40;91.50;;;;;;5054665;28;20213;-77
2021/03/28 05:22:49;;;;;;;4.65;1.52;;;9.50;91.60;;;;;;5054537;28;20185;-75
2021/03/28 05:25:46;;;;;;;4.55;1.83;;;9.60;91.50;;;;;;5053442;28;20192;-75
2021/03/28 05:28:40;;;;;;;4.38;1.50;;;9.60;92.10;;;;;;5053097;28;20941;-76
2021/03/28 05:31:24;;;;;;;5.03;1.45;;;9.60;91.70;;;;;;5054551;28;20169;-76
2021/03/28 05:34:24;;;;;;;6.18;1.42;;;9.70;91.80;;;;;;5053189;28;20216;-76
2021/03/28 05:37:02;;;;;;;7.93;2.50;;;9.70;91.80;;;;;;5053033;28;20518;-75
2021/03/28 05:40:05;;;;;;;3.03;1.38;;;9.70;91.80;;;;;;5054173;28;20193;-75
2021/03/28 05:42:48;;;;;;;4.53;1.48;;;9.80;92.00;;;;;;5054234;28;20197;-76
2021/03/28 05:45:25;;;;;;;2.83;1.35;;;9.80;92.00;;;;;;5054274;28;20165;-76
2021/03/28 05:48:20;;;;;;;1.85;1.15;;;9.90;92.10;;;;;;5052791;28;20161;-76
2021/03/28 05:51:00;;;;;;;4.28;1.50;;;9.90;92.20;;;;;;5057675;28;20576;-76
2021/03/28 05:53:47;;;;;;;3.50;1.60;;;9.90;92.20;;;;;;5052810;28;20197;-76
2021/03/28 05:56:41;;;;;;;5.28;1.30;;;9.90;92.30;;;;;;5045318;28;20174;-76
2021/03/28 05:59:30;;;;;;;4.13;1.20;;;10.00;91.90;;;;;;5029912;28;20604;-76
2021/03/28 06:02:14;;;;;;;5.88;2.03;;;10.00;91.90;;;;;;5031037;28;20197;-76
2021/03/28 06:04:55;;;;;;;5.70;1.52;;;10.00;91.90;;;;;;5031280;28;20291;-76
2021/03/28 06:07:58;;;;;;;2.80;1.20;;;10.10;92.10;;;;;;5031174;28;20174;-77
2021/03/28 06:10:45;;;;;;;2.53;1.00;;;10.10;92.00;;;;;;5032722;28;20249;-76
2021/03/28 06:13:30;;;;;;;2.45;1.20;;;10.10;92.00;;;;;;5032188;28;20194;-76
2021/03/28 06:16:09;;;;;;;1.67;1.17;;;10.20;92.10;;;;;;5033790;28;20173;-77
2021/03/28 06:19:08;;;;;;;2.20;1.02;;;10.20;92.20;;;;;;5033354;28;20219;-76
2021/03/28 06:22:01;;;;;;;3.22;1.15;;;10.20;92.40;;;;;;5033712;28;20755;-77
2021/03/28 06:25:03;;;;;;;3.95;1.23;;;10.30;92.40;;;;;;5033882;28;20165;-77
2021/03/28 06:27:44;;;;;;;1.70;0.80;;;10.30;92.40;;;;;;5036175;28;20520;-76
2021/03/28 06:31:00;;;;;;;2.95;1.08;;;10.40;92.50;;;;;;5034390;28;20192;-76
2021/03/28 06:33:45;;;;;;;2.97;1.30;;;10.50;92.50;;;;;;5009856;28;20673;-76
2021/03/28 06:36:27;;;;;;;4.30;1.10;;;10.60;92.50;;;;;;5048809;28;20543;-76
2021/03/28 06:39:17;;;;;;;2.55;1.20;;;10.70;92.60;;;;;;5033383;28;20201;-77
2021/03/28 06:42:08;;;;;;;6.38;1.38;;;10.70;92.70;;;;;;5033387;28;20174;-78
2021/03/28 06:44:53;;;;;;;3.53;1.20;;;10.80;92.70;;;;;;5033218;28;20169;-76
2021/03/28 06:47:57;;;;;;;2.97;1.20;;;10.90;92.80;;;;;;5033005;28;20629;-76
2021/03/28 06:50:51;;;;;;;3.95;1.40;;;11.00;92.80;;;;;;5033169;28;20177;-76
2021/03/28 06:53:49;;;;;;;2.60;1.00;;;11.10;92.90;;;;;;5031897;28;20205;-76
2021/03/28 06:56:46;;;;;;;4.10;1.30;;;11.10;92.90;;;;;;5033206;28;20169;-76
2021/03/28 06:59:39;;;;;;;5.68;1.35;;;11.20;92.90;;;;;;5033234;28;20235;-76
2021/03/28 07:02:26;;;;;;;4.72;1.55;;;11.30;92.90;;;;;;5032960;28;20186;-76
2021/03/28 07:05:08;;;;;;;3.60;1.27;;;11.40;92.90;;;;;;5036651;28;20192;-76
2021/03/28 07:08:08;;;;;;;4.18;1.30;;;11.40;92.90;;;;;;5031666;28;20194;-76
2021/03/28 07:11:15;;;;;;;2.50;1.58;;;11.50;93.30;;;;;;5048067;28;20169;-75
2021/03/28 07:14:12;;;;;;;2.97;1.40;;;11.50;92.80;;;;;;5032549;28;20201;-78
2021/03/28 07:17:20;;;;;;;4.50;1.45;;;11.60;92.90;;;;;;5031271;28;20630;-76
2021/03/28 07:20:27;;;;;;;3.72;1.65;;;11.60;92.80;;;;;;5030817;28;20189;-76
2021/03/28 07:23:32;;;;;;;5.55;1.50;;;11.70;92.90;;;;;;5012697;28;20193;-76
2021/03/28 07:26:15;;;;;;;2.55;0.98;;;11.80;92.90;;;;;;4997151;28;20638;-76
2021/03/28 07:29:11;;;;;;;2.80;1.10;;;11.90;92.90;;;;;;5012722;28;20177;-76
2021/03/28 07:32:08;;;;;;;3.45;1.40;;;12.00;92.90;;;;;;5011968;28;20801;-76
2021/03/28 07:34:47;;;;;;;2.75;0.90;;;12.00;92.80;;;;;;5013020;28;20193;-77
2021/03/28 07:38:12;;;;;;;5.32;1.17;;;12.20;92.90;;;;;;5029974;28;20654;-76
2021/03/28 07:41:15;;;;;;;4.00;1.20;;;12.20;92.70;;;;;;5032460;28;20181;-76
2021/03/28 07:44:00;;;;;;;3.13;0.95;;;12.30;92.70;;;;;;5031400;28;20205;-77
2021/03/28 07:46:38;;;;;;;6.50;1.13;;;12.40;92.70;;;;;;5031355;28;20170;-77
2021/03/28 07:49:35;;;;;;;3.55;1.20;;;12.50;92.60;;;;;;5031609;28;20169;-76
2021/03/28 07:52:36;;;;;;;3.47;1.30;;;12.60;92.60;;;;;;5030986;28;20174;-77
2021/03/28 07:55:30;;;;;;;4.25;1.50;;;12.70;92.60;;;;;;5031330;28;20200;-77
2021/03/28 07:58:07;;;;;;;2.10;0.90;;;12.80;92.60;;;;;;5032334;28;20263;-77
2021/03/28 08:00:58;;;;;;;2.70;1.10;;;12.90;92.60;;;;;;5031756;28;20575;-77
2021/03/28 08:03:53;;;;;;;2.95;1.00;;;13.00;92.60;;;;;;5037553;28;20223;-76
2021/03/28 08:06:41;;;;;;;1.88;0.85;;;13.10;92.60;;;;;;5031996;28;20526;-77
2021/03/28 08:09:16;;;;;;;2.78;0.90;;;13.20;92.50;;;;;;5031128;28;20169;-77
2021/03/28 08:11:53;;;;;;;3.85;1.10;;;13.30;92.60;;;;;;5031982;28;20168;-77
2021/03/28 08:14:34;;;;;;;3.15;0.90;;;13.40;92.50;;;;;;5031920;28;20200;-77
2021/03/28 08:17:27;;;;;;;3.75;0.98;;;13.50;92.40;;;;;;5031553;28;20526;-77
2021/03/28 08:20:08;;;;;;;7.50;1.17;;;13.60;92.40;;;;;;5032770;28;20518;-76
2021/03/28 08:22:55;;;;;;;2.75;0.88;;;13.70;92.50;;;;;;5031152;28;20193;-76
2021/03/28 08:26:00;;;;;;;3.35;0.90;;;13.80;92.50;;;;;;5031754;28;20161;-77
2021/03/28 08:29:04;;;;;;;3.75;1.20;;;14.00;92.20;;;;;;5023287;28;20516;-77
2021/03/28 08:32:11;;;;;;;3.20;0.90;;;14.20;92.20;;;;;;5031642;28;20169;-77
2021/03/28 08:34:52;;;;;;;4.10;1.00;;;14.40;92.40;;;;;;5032111;28;20192;-77
2021/03/28 08:37:42;;;;;;;4.95;0.90;;;14.60;92.70;;;;;;5035438;28;20296;-76
2021/03/28 08:40:14;;;;;;;4.47;1.17;;;14.90;92.60;;;;;;5035558;28;20221;-77
2021/03/28 08:42:52;;;;;;;2.70;0.80;;;15.30;92.90;;;;;;5035371;28;20224;-77
2021/03/28 08:45:50;;;;;;;4.50;0.97;;;15.70;92.90;;;;;;5035528;28;21115;-77
2021/03/28 08:48:35;;;;;;;4.50;0.83;;;16.30;93.20;;;;;;5034066;28;20925;-77
2021/03/28 08:51:43;;;;;;;2.07;0.90;;;17.00;93.00;;;;;;5034097;28;20614;-77
2021/03/28 08:54:34;;;;;;;3.77;1.20;;;17.80;93.50;;;;;;5035583;28;20588;-77
2021/03/28 08:57:21;;;;;;;3.00;0.90;;;18.70;93.40;;;;;;5039481;28;20567;-77
2021/03/28 09:00:18;;;;;;;4.27;1.00;;;19.50;92.10;;;;;;5033881;28;20619;-77
2021/03/28 09:03:23;;;;;;;2.37;0.80;;;20.10;91.10;;;;;;5029304;28;20612;-78
2021/03/28 09:06:12;;;;;;;1.70;0.80;;;20.50;89.90;;;;;;4982128;28;20610;-77
2021/03/28 09:09:22;;;;;;;2.90;0.90;;;20.60;87.60;;;;;;5033445;28;20650;-77
2021/03/28 09:12:18;;;;;;;4.30;0.90;;;20.60;82.80;;;;;;5034776;28;20623;-78
2021/03/28 09:14:59;;;;;;;4.17;1.30;;;20.70;84.30;;;;;;5034762;28;20676;-78
2021/03/28 09:17:46;;;;;;;1.93;0.93;;;20.70;82.60;;;;;;5033214;28;20675;-78
2021/03/28 09:20:45;;;;;;;2.83;1.00;;;20.80;81.70;;;;;;5033761;28;20623;-77
2021/03/28 09:23:36;;;;;;;3.20;1.00;;;20.90;81.10;;;;;;5033354;28;20650;-78
2021/03/28 09:26:05;;;;;;;4.30;1.10;;;21.20;81.30;;;;;;5034607;28;20595;-78
2021/03/28 09:28:46;;;;;;;4.50;1.17;;;21.50;82.50;;;;;;5034281;28;20894;-78
2021/03/28 09:31:19;;;;;;;4.43;1.90;;;21.90;82.90;;;;;;5034621;28;20560;-78
2021/03/28 09:34:04;;;;;;;2.07;0.97;;;22.20;79.10;;;;;;5038061;28;21259;-78
2021/03/28 09:36:46;;;;;;;3.00;1.00;;;22.20;78.30;;;;;;5032781;28;20659;-78
2021/03/28 09:39:49;;;;;;;2.83;1.00;;;22.20;76.90;;;;;;5034528;28;20718;-78
2021/03/28 09:42:51;;;;;;;3.83;1.40;;;22.00;75.30;;;;;;5022656;28;20612;-78
2021/03/28 09:45:45;;;;;;;4.30;1.50;;;21.80;74.60;;;;;;5032890;28;20576;-78
2021/03/28 09:48:43;;;;;;;5.67;1.40;;;21.60;74.50;;;;;;5033209;28;20572;-78
2021/03/28 09:51:39;;;;;;;3.10;1.30;;;21.60;75.20;;;;;;5033002;28;20568;-78
2021/03/28 09:54:33;;;;;;;4.00;1.63;;;21.90;75.60;;;;;;5032499;28;20608;-78
2021/03/28 09:57:05;;;;;;;4.60;1.60;;;22.10;74.00;;;;;;5033872;28;20659;-78
2021/03/28 09:59:59;;;;;;;3.93;2.40;;;22.10;72.50;;;;;;5032686;28;20651;-78
2021/03/28 10:03:02;;;;;;;3.00;1.20;;;21.90;71.50;;;;;;5033830;28;20592;-78
2021/03/28 10:05:32;;;;;;;3.07;0.93;;;21.70;69.90;;;;;;5034163;28;20973;-78
2021/03/28 10:08:07;;;;;;;3.20;0.90;;;21.60;68.50;;;;;;5032527;28;20622;-78
2021/03/28 10:10:42;;;;;;;3.77;0.90;;;21.30;67.80;;;;;;5038255;28;20591;-78
2021/03/28 10:13:29;;;;;;;2.40;0.87;;;21.40;69.80;;;;;;5032540;28;20596;-77
2021/03/28 10:16:16;;;;;;;2.50;1.00;;;21.90;72.40;;;;;;5033906;28;20564;-78
2021/03/28 10:19:01;;;;;;;1.90;0.70;;;22.30;70.10;;;;;;5032063;28;20632;-78
2021/03/28 10:21:53;;;;;;;3.37;1.00;;;22.70;70.20;;;;;;5015981;28;20581;-78
2021/03/28 10:24:41;;;;;;;3.57;1.03;;;23.20;70.80;;;;;;5033560;28;20592;-78
2021/03/28 10:27:27;;;;;;;4.63;0.90;;;23.80;70.80;;;;;;5033172;28;20564;-80
2021/03/28 10:29:55;;;;;;;1.63;0.67;;;24.50;69.40;;;;;;5032521;28;20572;-79
2021/03/28 10:32:43;;;;;;;1.80;0.70;;;25.10;70.50;;;;;;5031987;28;20895;-80
2021/03/28 10:35:46;;;;;;;3.00;0.80;;;25.70;66.70;;;;;;5033465;28;20568;-80
2021/03/28 10:38:42;;;;;;;2.20;0.73;;;26.10;66.20;;;;;;5032891;28;20898;-79
2021/03/28 10:41:29;;;;;;;4.20;1.00;;;26.20;62.30;;;;;;5033184;28;20584;-79
2021/03/28 10:44:29;;;;;;;1.60;1.17;;;26.20;61.90;;;;;;5031950;28;20591;-79
2021/03/28 10:47:14;;;;;;;3.60;1.40;;;26.00;59.00;;;;;;5037445;28;20658;-79
2021/03/28 10:50:16;;;;;;;3.70;1.63;;;25.80;58.40;;;;;;5032363;28;20560;-79
2021/03/28 10:52:59;;;;;;;4.53;1.20;;;25.70;57.50;;;;;;5032833;28;20600;-80
2021/03/28 10:55:55;;;;;;;2.83;0.97;;;25.40;56.70;;;;;;5032208;28;20580;-79
2021/03/28 10:58:51;;;;;;;2.77;0.70;;;25.10;55.90;;;;;;5031369;28;20576;-80
2021/03/28 11:01:55;;;;;;;4.00;1.00;;;24.70;55.60;;;;;;5032967;28;21191;-79
2021/03/28 11:04:58;;;;;;;3.90;1.50;;;24.20;54.10;;;;;;5032879;28;20565;-79
2021/03/28 11:07:37;;;;;;;4.07;0.90;;;23.80;55.30;;;;;;5031074;28;20572;-79
2021/03/28 11:10:31;;;;;;;3.10;0.80;;;23.60;55.00;;;;;;5032645;28;20725;-79
2021/03/28 11:13:26;;;;;;;2.40;1.07;;;23.50;54.10;;;;;;5032541;28;20647;-80
2021/03/28 11:16:24;;;;;;;3.03;0.90;;;23.50;55.10;;;;;;5032601;28;20572;-79
2021/03/28 11:19:28;;;;;;;3.63;1.10;;;23.50;54.40;;;;;;5014897;28;20985;-79
2021/03/28 11:22:13;;;;;;;4.43;1.07;;;23.30;53.30;;;;;;5031362;28;21221;-79
2021/03/28 11:24:51;;;;;;;1.80;0.90;;;23.30;54.10;;;;;;5037064;28;20560;-79
2021/03/28 11:27:25;;;;;;;5.83;2.03;;;23.30;52.90;;;;;;5033384;28;20940;-80
2021/03/28 11:30:35;;;;;;;2.33;1.00;;;23.60;54.50;;;;;;5031056;28;20567;-80
2021/03/28 11:33:28;;;;;;;2.73;0.90;;;23.80;54.60;;;;;;4990338;28;20695;-79
2021/03/28 11:36:01;;;;;;;3.67;0.80;;;24.10;54.50;;;;;;5014554;28;21202;-80
2021/03/28 11:38:34;;;;;;;3.30;1.30;;;24.40;54.00;;;;;;5031555;28;20564;-78
2021/03/28 11:41:06;;;;;;;4.67;2.37;;;24.50;53.70;;;;;;5032019;28;20573;-79
2021/03/28 11:43:32;;;;;;;2.50;1.20;;;24.70;53.50;;;;;;5030782;28;20596;-80
2021/03/28 11:46:04;;;;;;;5.53;1.67;;;24.90;53.20;;;;;;5031990;28;21191;-81
2021/03/28 11:48:48;;;;;;;4.93;1.63;;;24.80;51.30;;;;;;5031519;28;20198;-81
2021/03/28 11:51:33;;;;;;;3.53;1.60;;;24.70;50.90;;;;;;5030935;28;20572;-80
2021/03/28 11:54:08;;;;;;;3.00;1.60;;;24.60;51.70;;;;;;5031808;28;20631;-80
2021/03/28 11:56:40;;;;;;;3.77;1.10;;;24.50;51.40;;;;;;5031671;28;20587;-81
2021/03/28 11:59:25;;;;;;;3.50;1.00;;;24.40;51.10;;;;;;5031993;28;20612;-80
2021/03/28 12:01:58;;;;;;;2.80;1.17;;;24.30;50.80;;;;;;5036767;28;20631;-81
2021/03/28 12:04:38;;;;;;;3.40;1.43;;;24.20;51.30;;;;;;5032456;28;20568;-80
2021/03/28 12:07:30;;;;;;;6.30;1.00;;;24.20;51.40;;;;;;5031170;28;21176;-80
2021/03/28 12:09:59;;;;;;;2.37;0.73;;;24.10;51.50;;;;;;5030122;28;20584;-81
2021/03/28 12:12:40;;;;;;;9.07;3.47;;;24.20;51.80;;;;;;5031669;28;20642;-81
2021/03/28 12:15:46;;;;;;;7.47;3.07;;;24.30;51.40;;;;;;5031604;28;20683;-80
2021/03/28 12:18:25;;;;;;;3.40;1.80;;;24.30;50.30;;;;;;5031459;28;20565;-80
2021/03/28 12:21:04;;;;;;;4.70;3.03;;;24.30;50.50;;;;;;5030362;28;21263;-80
2021/03/28 12:23:35;;;;;;;3.27;1.27;;;24.20;50.80;;;;;;5031731;28;20688;-81
2021/03/28 12:26:10;;;;;;;4.10;0.90;;;24.20;50.50;;;;;;5030292;28;21025;-80
2021/03/28 12:28:45;;;;;;;3.23;0.90;;;24.10;49.70;;;;;;5031439;28;20927;-80
2021/03/28 12:31:40;;;;;;;4.27;0.70;;;24.00;50.10;;;;;;5031531;28;20565;-79
2021/03/28 12:34:24;;;;;;;3.97;1.07;;;24.00;50.60;;;;;;5030313;28;21151;-80
2021/03/28 12:37:05;;;;;;;3.13;0.90;;;24.20;50.50;;;;;;5030285;28;20564;-79
2021/03/28 12:39:38;;;;;;;4.40;1.03;;;24.00;49.60;;;;;;5035007;28;21207;-78
2021/03/28 12:42:03;;;;;;;3.37;1.30;;;24.00;50.00;;;;;;5031329;28;21147;-77
2021/03/28 12:44:39;;;;;;;3.20;1.10;;;23.90;50.10;;;;;;5030568;28;20572;-79
2021/03/28 12:47:28;;;;;;;3.33;1.07;;;23.80;49.50;;;;;;5029811;28;20637;-79
2021/03/28 12:50:00;;;;;;;7.77;1.37;;;23.60;48.70;;;;;;5031438;28;20600;-79
2021/03/28 12:52:33;;;;;;;3.27;1.57;;;23.50;49.10;;;;;;5030211;28;20653;-80
2021/03/28 12:55:09;;;;;;;4.63;2.17;;;23.40;49.40;;;;;;5030357;28;20568;-78
2021/03/28 12:57:43;;;;;;;5.47;1.80;;;23.30;49.30;;;;;;5029900;28;20612;-81
2021/03/28 13:00:57;;;;;;;2.87;1.23;;;23.20;49.40;;;;;;5014038;28;20624;-80
2021/03/28 13:03:33;;;;;;;3.17;1.40;;;23.10;49.20;;;;;;5000083;28;20665;-79
2021/03/28 13:06:19;;;;;;;4.40;1.23;;;23.00;48.20;;;;;;5031502;28;21112;-80
2021/03/28 13:08:59;;;;;;;1.80;0.80;;;22.80;48.80;;;;;;5031281;28;20663;-80
2021/03/28 13:11:41;;;;;;;2.33;0.80;;;22.60;48.70;;;;;;5032154;28;20564;-80
2021/03/28 13:14:23;;;;;;;5.63;1.27;;;22.40;48.20;;;;;;5032039;28;20611;-79
2021/03/28 13:16:57;;;;;;;3.87;0.90;;;22.20;48.20;;;;;;5038783;28;20568;-78
2021/03/28 13:19:26;;;;;;;5.20;1.20;;;22.10;48.40;;;;;;5030113;28;20723;-78
2021/03/28 13:21:58;;;;;;;3.10;0.90;;;22.00;49.00;;;;;;5032385;28;20610;-79
2021/03/28 13:24:24;;;;;;;5.83;1.60;;;21.80;48.70;;;;;;5034694;28;20559;-79
2021/03/28 13:27:08;;;;;;;3.90;1.60;;;21.70;48.60;;;;;;5038184;28;20569;-79
2021/03/28 13:29:52;;;;;;;5.77;3.03;;;21.60;48.60;;;;;;5038578;28;20568;-81
2021/03/28 13:32:32;;;;;;;4.50;2.97;;;21.50;48.20;;;;;;5036677;28;20642;-80
2021/03/28 13:35:01;;;;;;;5.53;2.83;;;21.30;48.30;;;;;;5034918;28;20560;-80
2021/03/28 13:37:36;;;;;;;4.03;2.07;;;21.20;48.30;;;;;;5034207;28;20564;-80
2021/03/28 13:40:19;;;;;;;6.17;2.63;;;21.10;48.50;;;;;;5034407;28;21497;-81
2021/03/28 13:43:22;;;;;;;3.97;2.40;;;21.00;48.70;;;;;;5033154;28;20599;-80
2021/03/28 13:45:50;;;;;;;13.00;4.60;;;21.00;49.00;;;;;;5033495;28;20618;-81
2021/03/28 13:48:16;;;;;;;9.00;3.30;;;21.00;49.10;;;;;;5033027;28;20596;-81
2021/03/28 13:51:00;;;;;;;4.90;3.07;;;21.00;49.10;;;;;;5033336;28;20923;-81
2021/03/28 13:53:37;;;;;;;6.40;3.60;;;21.00;48.80;;;;;;5039469;28;20244;-81
2021/03/28 13:56:40;;;;;;;7.22;3.40;;;20.90;48.90;;;;;;5033593;28;20733;-79
2021/03/28 13:59:21;;;;;;;3.73;1.67;;;20.80;48.30;;;;;;5032888;28;20197;-80
2021/03/28 14:02:13;;;;;;;5.00;3.00;;;20.90;48.80;;;;;;5032795;28;20596;-79
2021/03/28 14:04:43;;;;;;;3.97;1.70;;;20.90;48.70;;;;;;5033996;28;20564;-80
2021/03/28 14:07:29;;;;;;;5.80;3.33;;;20.90;48.70;;;;;;5032361;28;20667;-80
2021/03/28 14:10:04;;;;;;;6.50;4.80;;;20.80;48.90;;;;;;5033833;28;21131;-80
2021/03/28 14:12:32;;;;;;;8.30;4.20;;;20.80;49.20;;;;;;5033707;28;20661;-80
2021/03/28 14:15:14;;;;;;;17.83;7.50;;;20.90;49.50;;;;;;5033874;28;20556;-80
2021/03/28 14:17:41;;;;;;;6.60;2.67;;;20.80;49.30;;;;;;5033434;28;20611;-80
2021/03/28 14:20:23;;;;;;;4.30;2.17;;;20.80;49.30;;;;;;5033653;28;20948;-80
2021/03/28 14:22:52;;;;;;;4.07;1.80;;;20.70;49.00;;;;;;5033377;28;20588;-80
2021/03/28 14:25:46;;;;;;;3.93;2.17;;;20.80;49.20;;;;;;5033736;28;20603;-80
2021/03/28 14:28:28;;;;;;;3.50;1.20;;;20.70;49.00;;;;;;5032094;28;20560;-80
2021/03/28 14:31:21;;;;;;;4.43;1.60;;;20.80;48.80;;;;;;5037181;28;20626;-80
2021/03/28 14:34:00;;;;;;;3.97;1.27;;;20.70;48.80;;;;;;5025663;28;20608;-80